Time;durP1;ratioP1;P1;durP2;ratioP2;P2;SDS_P1;SDS_P2;PMS_P1;PMS_P2;Temp;Humidity;BMP_temperature;BMP_pressure;BME280_temperature;BME280_humidity;BME280_pressure;Samples;Min_cycle;Max_cycle;Signal;HPM_P1;HPM_P2
2021/06/13 00:01:14;;;;;;;10.85;6.05;;;15.60;99.90;;;;;;5075718;28;20024;-88
2021/06/13 00:03:40;;;;;;;10.63;6.40;;;15.50;99.90;;;;;;5076407;28;20104;-89
2021/06/13 00:06:05;;;;;;;9.60;6.55;;;15.50;99.90;;;;;;5074820;28;20120;-89
2021/06/13 00:08:32;;;;;;;9.75;6.53;;;15.50;99.90;;;;;;5074830;28;20600;-88
2021/06/13 00:10:58;;;;;;;13.23;6.20;;;15.40;99.90;;;;;;5074835;28;20000;-88
2021/06/13 00:13:25;;;;;;;9.85;6.15;;;15.40;99.90;;;;;;5074973;28;20031;-89
2021/06/13 00:15:51;;;;;;;10.27;7.03;;;15.10;99.90;;;;;;5074799;28;20083;-89
2021/06/13 00:18:17;;;;;;;11.95;7.18;;;15.00;99.90;;;;;;5073784;28;20086;-88
2021/06/13 00:20:43;;;;;;;10.45;7.15;;;14.80;99.90;;;;;;5074570;28;20021;-89
2021/06/13 00:23:09;;;;;;;10.38;6.50;;;14.80;99.90;;;;;;5073985;28;20031;-89
2021/06/13 00:25:35;;;;;;;13.10;6.95;;;14.70;99.90;;;;;;5074563;28;20123;-89
2021/06/13 00:28:00;;;;;;;10.07;7.20;;;14.70;99.90;;;;;;5074477;28;20029;-88
2021/06/13 00:30:26;;;;;;;16.08;7.10;;;14.70;99.90;;;;;;5074446;28;20063;-88
2021/06/13 00:32:52;;;;;;;10.98;7.20;;;14.80;99.90;;;;;;5074583;28;20017;-89
2021/06/13 00:35:20;;;;;;;9.23;6.53;;;14.80;99.90;;;;;;5074347;28;20020;-88
2021/06/13 00:37:45;;;;;;;13.40;7.40;;;14.70;99.90;;;;;;5074404;28;20025;-89
2021/06/13 00:40:12;;;;;;;11.02;7.60;;;14.70;99.90;;;;;;5074186;28;20257;-89
2021/06/13 00:42:38;;;;;;;15.25;7.35;;;14.70;99.90;;;;;;5074281;28;20021;-89
2021/06/13 00:45:06;;;;;;;14.32;7.70;;;14.80;99.90;;;;;;5075240;28;20561;-91
2021/06/13 00:47:31;;;;;;;12.63;7.03;;;14.80;99.90;;;;;;5076675;28;20032;-89
2021/06/13 00:49:57;;;;;;;10.70;6.80;;;14.60;99.90;;;;;;5076197;28;20389;-92
2021/06/13 00:52:26;;;;;;;10.60;7.45;;;14.50;99.90;;;;;;5074066;28;20452;-90
2021/06/13 00:54:53;;;;;;;10.75;7.35;;;14.20;99.90;;;;;;5073617;28;20024;-89
2021/06/13 00:57:18;;;;;;;12.80;7.07;;;14.10;99.90;;;;;;5073112;28;20033;-90
2021/06/13 00:59:44;;;;;;;10.57;6.50;;;14.10;99.90;;;;;;5073742;28;20039;-89
2021/06/13 01:02:10;;;;;;;10.55;7.82;;;14.10;99.90;;;;;;5073500;28;20027;-89
2021/06/13 01:04:35;;;;;;;10.60;7.78;;;14.00;99.90;;;;;;5074044;28;20042;-89
2021/06/13 01:07:06;;;;;;;10.95;7.55;;;14.00;99.90;;;;;;5074072;28;20077;-89
2021/06/13 01:09:41;;;;;;;12.48;8.25;;;14.10;99.90;;;;;;5073874;28;20029;-89
2021/06/13 01:12:07;;;;;;;14.02;8.20;;;14.00;99.90;;;;;;5073839;28;20024;-90
2021/06/13 01:15:11;;;;;;;12.77;8.18;;;14.10;99.90;;;;;;5074010;28;20162;-90
2021/06/13 01:17:50;;;;;;;10.95;7.90;;;14.20;99.90;;;;;;5071550;28;20110;-89
2021/06/13 01:20:26;;;;;;;12.18;8.75;;;14.00;99.90;;;;;;5074031;28;20021;-89
2021/06/13 01:23:16;;;;;;;11.68;8.30;;;14.00;99.90;;;;;;5072873;28;20115;-89
2021/06/13 01:26:19;;;;;;;12.70;8.32;;;14.20;99.90;;;;;;5073883;28;20045;-89
2021/06/13 01:29:01;;;;;;;14.05;8.20;;;14.20;99.90;;;;;;5073490;28;20127;-90
2021/06/13 01:31:48;;;;;;;8.40;7.50;;;14.10;99.90;;;;;;5074410;28;20032;-91
2021/06/13 01:34:29;;;;;;;11.38;8.00;;;14.00;99.90;;;;;;5073566;28;20025;-89
2021/06/13 01:36:56;;;;;;;11.27;8.35;;;14.00;99.90;;;;;;5073619;28;20396;-89
2021/06/13 01:39:27;;;;;;;13.57;8.60;;;14.00;99.90;;;;;;5073427;28;20029;-88
2021/06/13 01:41:56;;;;;;;15.00;8.00;;;14.10;99.90;;;;;;5073602;28;20425;-89
2021/06/13 01:44:23;;;;;;;13.05;8.10;;;14.00;99.90;;;;;;5073403;28;20318;-89
2021/06/13 01:46:51;;;;;;;14.63;7.85;;;13.80;99.90;;;;;;5073281;28;20028;-89
2021/06/13 01:49:21;;;;;;;13.75;8.50;;;13.80;99.90;;;;;;5073438;28;20005;-89
2021/06/13 01:51:48;;;;;;;11.70;8.05;;;13.80;99.90;;;;;;5072541;28;20389;-89
2021/06/13 01:54:16;;;;;;;12.80;8.50;;;13.80;99.90;;;;;;5073139;28;20029;-89
2021/06/13 01:56:51;;;;;;;14.23;8.60;;;13.70;99.90;;;;;;5072890;28;20056;-89
2021/06/13 01:59:18;;;;;;;15.90;9.40;;;13.80;99.90;;;;;;5073956;28;20029;-89
2021/06/13 02:01:45;;;;;;;13.30;9.70;;;13.80;99.90;;;;;;5072881;28;20450;-89
2021/06/13 02:04:12;;;;;;;19.10;10.20;;;13.80;99.90;;;;;;5073282;28;20021;-89
2021/06/13 02:06:44;;;;;;;12.57;9.90;;;13.80;99.90;;;;;;5073690;28;20021;-89
2021/06/13 02:09:11;;;;;;;15.50;9.52;;;13.70;99.90;;;;;;5074328;28;20024;-89
2021/06/13 02:11:42;;;;;;;11.18;8.88;;;13.70;99.90;;;;;;5073069;28;20056;-89
2021/06/13 02:14:09;;;;;;;15.75;9.27;;;13.50;99.90;;;;;;5073211;28;20021;-90
2021/06/13 02:16:36;;;;;;;11.98;8.23;;;13.40;99.90;;;;;;5073075;28;20107;-89
2021/06/13 02:19:03;;;;;;;11.77;8.85;;;13.40;99.90;;;;;;5073123;28;20028;-89
2021/06/13 02:21:29;;;;;;;16.13;9.57;;;13.40;99.90;;;;;;5072973;28;20060;-89
2021/06/13 02:23:56;;;;;;;16.15;10.02;;;13.40;99.90;;;;;;5073219;28;20017;-89
2021/06/13 02:26:22;;;;;;;18.50;11.18;;;13.40;99.90;;;;;;5072903;28;20051;-89
2021/06/13 02:28:52;;;;;;;17.75;10.88;;;13.40;99.90;;;;;;5073062;28;20140;-89
2021/06/13 02:31:19;;;;;;;19.17;11.50;;;13.30;99.90;;;;;;5076079;28;20013;-89
2021/06/13 02:33:47;;;;;;;20.30;11.05;;;13.50;99.90;;;;;;5076452;28;20025;-89
2021/06/13 02:36:14;;;;;;;16.25;10.63;;;13.50;99.90;;;;;;5076612;28;20081;-89
2021/06/13 02:38:39;;;;;;;13.77;10.75;;;13.50;99.90;;;;;;5077134;28;20035;-90
2021/06/13 02:41:05;;;;;;;12.98;10.48;;;13.60;99.90;;;;;;5078424;28;20020;-90
2021/06/13 02:43:32;;;;;;;19.33;11.23;;;13.70;99.90;;;;;;5078713;28;20029;-90
2021/06/13 02:45:58;;;;;;;15.82;10.65;;;13.70;99.90;;;;;;5077341;28;20032;-90
2021/06/13 02:48:23;;;;;;;18.80;11.13;;;13.80;99.90;;;;;;5077218;28;20633;-90
2021/06/13 02:50:51;;;;;;;15.93;10.57;;;13.70;99.90;;;;;;5077112;28;20028;-90
2021/06/13 02:53:43;;;;;;;12.32;9.77;;;13.70;99.90;;;;;;5076322;28;20036;-90
2021/06/13 02:56:22;;;;;;;16.10;10.98;;;13.70;99.90;;;;;;5076315;28;20115;-90
2021/06/13 02:59:10;;;;;;;17.55;10.70;;;13.70;99.90;;;;;;5076064;28;20032;-90
2021/06/13 03:01:41;;;;;;;17.02;10.75;;;13.60;99.90;;;;;;5075733;28;20059;-90
2021/06/13 03:04:10;;;;;;;13.68;10.48;;;13.60;99.90;;;;;;5077266;28;20024;-88
2021/06/13 03:06:36;;;;;;;20.75;10.35;;;13.60;99.90;;;;;;5077642;28;20744;-88
2021/06/13 03:09:03;;;;;;;15.63;10.55;;;13.70;99.90;;;;;;5075982;28;20028;-88
2021/06/13 03:11:30;;;;;;;14.55;10.25;;;13.60;99.90;;;;;;5076151;28;20468;-88
2021/06/13 03:13:58;;;;;;;17.33;10.70;;;13.60;99.90;;;;;;5076049;28;20082;-89
2021/06/13 03:16:25;;;;;;;15.85;10.27;;;13.60;99.90;;;;;;5076213;28;20176;-89
2021/06/13 03:18:51;;;;;;;15.00;10.52;;;13.50;99.90;;;;;;5076006;28;20560;-89
2021/06/13 03:21:18;;;;;;;20.85;11.20;;;13.50;99.90;;;;;;5075755;28;20056;-90
2021/06/13 03:23:47;;;;;;;15.57;10.23;;;13.50;99.90;;;;;;5075931;28;20048;-88
2021/06/13 03:26:14;;;;;;;13.13;9.75;;;13.50;99.90;;;;;;5075450;28;20485;-90
2021/06/13 03:28:40;;;;;;;14.75;10.20;;;13.50;99.90;;;;;;5059148;28;20082;-90
2021/06/13 03:31:07;;;;;;;13.40;9.75;;;13.60;99.90;;;;;;5075513;28;20043;-89
2021/06/13 03:33:35;;;;;;;14.10;9.98;;;13.60;99.90;;;;;;5076716;28;20032;-90
2021/06/13 03:36:02;;;;;;;18.27;10.30;;;13.60;99.90;;;;;;5075453;28;20024;-90
2021/06/13 03:38:28;;;;;;;15.00;10.40;;;13.60;99.90;;;;;;5075377;28;20477;-90
2021/06/13 03:40:56;;;;;;;15.95;10.13;;;13.60;99.90;;;;;;5076420;28;20020;-89
2021/06/13 03:43:22;;;;;;;16.88;10.80;;;13.60;99.90;;;;;;5074555;28;20029;-90
2021/06/13 03:45:49;;;;;;;16.85;10.63;;;13.60;99.90;;;;;;5075549;28;20112;-89
2021/06/13 03:48:16;;;;;;;14.98;10.38;;;13.60;99.90;;;;;;5075126;28;20032;-90
2021/06/13 03:50:44;;;;;;;17.33;10.65;;;13.50;99.90;;;;;;5075217;28;20043;-90
2021/06/13 03:53:10;;;;;;;14.93;10.27;;;13.50;99.90;;;;;;5075002;28;20024;-90
2021/06/13 03:55:36;;;;;;;18.73;10.30;;;13.40;99.90;;;;;;5075140;28;20025;-90
2021/06/13 03:58:02;;;;;;;20.13;11.38;;;13.40;99.90;;;;;;5076216;28;20418;-89
2021/06/13 04:00:30;;;;;;;17.00;10.20;;;13.40;99.90;;;;;;5075230;28;20389;-90
2021/06/13 04:02:57;;;;;;;16.77;10.73;;;13.50;99.90;;;;;;5075100;28;20495;-89
2021/06/13 04:05:23;;;;;;;12.25;10.27;;;13.50;99.90;;;;;;5075036;28;20107;-90
2021/06/13 04:07:49;;;;;;;15.68;10.85;;;13.50;99.90;;;;;;5075015;28;20045;-90
2021/06/13 04:10:16;;;;;;;18.45;11.02;;;13.60;99.90;;;;;;5075099;28;20043;-90
2021/06/13 04:12:44;;;;;;;15.40;11.27;;;13.60;99.90;;;;;;5075005;28;20691;-89
2021/06/13 04:15:10;;;;;;;17.63;11.48;;;13.50;99.90;;;;;;5074846;28;20028;-90
2021/06/13 04:17:39;;;;;;;15.85;10.57;;;13.50;99.90;;;;;;5074709;28;20024;-90
2021/06/13 04:20:06;;;;;;;15.98;10.25;;;13.50;99.90;;;;;;5074544;28;20015;-90
2021/06/13 04:22:33;;;;;;;16.20;10.50;;;13.30;99.90;;;;;;5075269;28;20028;-90
2021/06/13 04:25:00;;;;;;;16.38;10.27;;;13.30;99.90;;;;;;5074466;28;20004;-90
2021/06/13 04:27:27;;;;;;;17.83;10.40;;;13.40;99.90;;;;;;5074019;28;20025;-90
2021/06/13 04:29:57;;;;;;;16.27;10.52;;;13.50;99.90;;;;;;5075334;28;20488;-90
2021/06/13 04:32:25;;;;;;;13.32;9.13;;;13.60;99.90;;;;;;5074672;28;20028;-91
2021/06/13 04:34:50;;;;;;;14.50;9.63;;;13.50;99.90;;;;;;5074329;28;20016;-90
2021/06/13 04:37:17;;;;;;;14.18;9.65;;;13.50;99.90;;;;;;5074297;28;20795;-90
2021/06/13 04:39:44;;;;;;;13.32;9.57;;;13.50;99.90;;;;;;5075091;28;20047;-90
2021/06/13 04:42:10;;;;;;;16.55;10.30;;;13.50;99.90;;;;;;5075261;28;20017;-90
2021/06/13 04:44:37;;;;;;;14.75;9.35;;;13.50;99.90;;;;;;5074885;28;20405;-90
2021/06/13 04:47:05;;;;;;;13.13;9.60;;;13.60;99.90;;;;;;5074330;28;20021;-88
2021/06/13 04:49:31;;;;;;;15.32;10.00;;;13.70;99.90;;;;;;5075543;28;20492;-89
2021/06/13 04:51:59;;;;;;;16.45;9.70;;;13.70;99.90;;;;;;5073755;28;20459;-88
2021/06/13 04:54:35;;;;;;;14.95;9.85;;;13.80;99.90;;;;;;5074038;28;20042;-89
2021/06/13 04:57:19;;;;;;;15.00;9.77;;;13.80;99.90;;;;;;5057521;28;20151;-89
2021/06/13 04:59:44;;;;;;;18.98;9.75;;;13.90;99.90;;;;;;5074080;28;20146;-88
2021/06/13 05:02:10;;;;;;;21.42;10.05;;;14.00;99.90;;;;;;5074113;28;20039;-88
2021/06/13 05:04:36;;;;;;;11.65;9.60;;;14.00;99.90;;;;;;5074064;28;20393;-88
2021/06/13 05:07:04;;;;;;;14.98;9.48;;;14.00;99.90;;;;;;5074133;28;20030;-89
2021/06/13 05:09:30;;;;;;;18.38;9.40;;;14.10;99.90;;;;;;5073744;28;20029;-88
2021/06/13 05:11:56;;;;;;;16.38;9.52;;;14.20;99.90;;;;;;5073874;28;20052;-89
2021/06/13 05:14:22;;;;;;;16.08;9.32;;;14.30;99.90;;;;;;5073894;28;20024;-87
2021/06/13 05:16:47;;;;;;;14.55;9.38;;;14.40;99.90;;;;;;5072928;28;20073;-88
2021/06/13 05:19:13;;;;;;;15.98;9.50;;;14.60;99.90;;;;;;5073849;28;20133;-88
2021/06/13 05:21:39;;;;;;;14.75;9.75;;;14.70;99.90;;;;;;5073202;28;20469;-88
2021/06/13 05:24:05;;;;;;;15.57;9.60;;;14.70;99.90;;;;;;5073369;28;20027;-89
2021/06/13 05:26:31;;;;;;;17.95;10.13;;;14.70;99.90;;;;;;5074351;28;20044;-88
2021/06/13 05:28:57;;;;;;;16.33;10.25;;;14.70;99.90;;;;;;5073546;28;20032;-88
2021/06/13 05:31:23;;;;;;;17.23;10.10;;;14.80;99.90;;;;;;5073616;28;20028;-88
2021/06/13 05:33:49;;;;;;;16.23;9.13;;;15.10;99.90;;;;;;5074740;28;20051;-89
2021/06/13 05:36:14;;;;;;;16.77;8.68;;;15.40;99.90;;;;;;5073412;28;20476;-90
2021/06/13 05:38:42;;;;;;;15.68;8.85;;;15.60;99.90;;;;;;5073181;28;20077;-89
2021/06/13 05:41:11;;;;;;;15.80;8.52;;;15.60;99.90;;;;;;5073385;28;20021;-89
2021/06/13 05:43:38;;;;;;;13.68;8.75;;;15.60;99.90;;;;;;5073526;28;20032;-90
2021/06/13 05:46:03;;;;;;;13.48;8.23;;;15.80;99.90;;;;;;5073371;28;20073;-89
2021/06/13 05:48:29;;;;;;;10.68;7.20;;;15.80;99.90;;;;;;5073305;28;20115;-90
2021/06/13 05:50:55;;;;;;;12.48;7.82;;;15.80;99.90;;;;;;5073253;28;20029;-90
2021/06/13 05:53:21;;;;;;;15.75;7.35;;;16.00;99.90;;;;;;5073424;28;20115;-90
2021/06/13 05:55:46;;;;;;;15.10;7.95;;;16.10;99.90;;;;;;5072531;28;20021;-90
2021/06/13 05:58:12;;;;;;;14.13;8.35;;;16.10;99.90;;;;;;5072844;28;20074;-90
2021/06/13 06:00:39;;;;;;;13.88;8.35;;;16.00;99.90;;;;;;5072737;28;20024;-90
2021/06/13 06:03:05;;;;;;;14.27;8.13;;;16.10;99.90;;;;;;5073173;28;20046;-90
2021/06/13 06:05:31;;;;;;;13.07;7.72;;;16.10;99.90;;;;;;5077112;28;20025;-90
2021/06/13 06:07:57;;;;;;;14.05;8.02;;;16.10;99.90;;;;;;5078823;28;20031;-89
2021/06/13 06:10:24;;;;;;;12.70;8.45;;;15.90;99.90;;;;;;5077983;28;20388;-91
2021/06/13 06:12:50;;;;;;;14.65;8.30;;;15.80;99.90;;;;;;5078407;28;20390;-91
2021/06/13 06:15:20;;;;;;;16.67;8.75;;;15.60;99.90;;;;;;5077991;28;20035;-90
2021/06/13 06:17:47;;;;;;;11.50;9.18;;;15.70;99.90;;;;;;5081273;28;20024;-89
2021/06/13 06:20:14;;;;;;;12.85;8.50;;;15.90;99.90;;;;;;5077938;28;20033;-89
2021/06/13 06:22:41;;;;;;;17.10;9.40;;;16.00;99.90;;;;;;5078040;28;20169;-88
2021/06/13 06:25:07;;;;;;;13.35;8.75;;;16.10;99.90;;;;;;5078446;28;20048;-88
2021/06/13 06:27:33;;;;;;;15.27;8.98;;;16.20;99.90;;;;;;5080822;28;20033;-91
2021/06/13 06:29:59;;;;;;;13.80;8.05;;;16.30;99.90;;;;;;5083019;28;20119;-90
2021/06/13 06:32:25;;;;;;;14.55;7.53;;;16.60;99.90;;;;;;5078035;28;20040;-87
2021/06/13 06:34:51;;;;;;;13.40;7.60;;;16.40;99.90;;;;;;5077194;28;20024;-89
2021/06/13 06:37:17;;;;;;;12.00;7.65;;;16.50;99.90;;;;;;5076977;28;20029;-89
2021/06/13 06:39:42;;;;;;;9.45;6.25;;;17.20;99.90;;;;;;5078081;28;20043;-89
2021/06/13 06:42:08;;;;;;;10.15;6.40;;;18.70;99.90;;;;;;5077339;28;20050;-88
2021/06/13 06:44:34;;;;;;;13.70;6.50;;;20.10;99.90;;;;;;5078481;28;20032;-87
2021/06/13 06:47:02;;;;;;;13.23;6.32;;;21.60;99.60;;;;;;5079256;28;20031;-87
2021/06/13 06:49:32;;;;;;;8.88;5.93;;;23.00;94.10;;;;;;5077287;28;20032;-88
2021/06/13 06:51:59;;;;;;;10.38;5.82;;;23.30;91.40;;;;;;5076429;28;20103;-88
2021/06/13 06:54:25;;;;;;;9.52;5.97;;;24.00;86.70;;;;;;5077335;28;20389;-88
2021/06/13 06:56:51;;;;;;;10.93;5.53;;;23.40;85.10;;;;;;5076256;28;20050;-88
2021/06/13 06:59:17;;;;;;;10.95;5.00;;;24.20;81.40;;;;;;5077000;28;20033;-88
2021/06/13 07:01:42;;;;;;;8.63;5.03;;;24.40;75.20;;;;;;5076273;28;20024;-88
2021/06/13 07:04:09;;;;;;;8.50;4.82;;;24.90;73.50;;;;;;5076674;28;20111;-88
2021/06/13 07:06:34;;;;;;;9.07;4.45;;;25.40;69.80;;;;;;5077549;28;20358;-88
2021/06/13 07:09:00;;;;;;;9.15;4.78;;;25.80;67.50;;;;;;5078376;28;20104;-88
2021/06/13 07:11:26;;;;;;;6.40;4.10;;;25.80;66.50;;;;;;5076196;28;20004;-88
2021/06/13 07:13:51;;;;;;;9.20;4.35;;;26.00;63.90;;;;;;5077412;28;20401;-88
2021/06/13 07:16:17;;;;;;;7.07;4.07;;;25.70;64.50;;;;;;5074968;28;20036;-88
2021/06/13 07:18:43;;;;;;;7.93;4.30;;;24.90;66.70;;;;;;5076377;28;20051;-88
2021/06/13 07:21:08;;;;;;;6.95;3.85;;;25.50;65.10;;;;;;5075618;28;20047;-88
2021/06/13 07:23:34;;;;;;;9.82;4.30;;;25.70;64.10;;;;;;5075793;28;20035;-88
2021/06/13 07:26:01;;;;;;;7.97;4.30;;;25.80;63.30;;;;;;5076491;28;20067;-88
2021/06/13 07:28:29;;;;;;;7.55;4.03;;;25.90;63.00;;;;;;5078693;28;20097;-88
2021/06/13 07:30:56;;;;;;;8.60;4.10;;;26.20;61.10;;;;;;5075989;28;20028;-88
2021/06/13 07:33:24;;;;;;;5.70;3.65;;;26.10;61.10;;;;;;5078924;28;20098;-88
2021/06/13 07:35:51;;;;;;;6.82;4.20;;;26.30;61.20;;;;;;5075794;28;20451;-87
2021/06/13 07:38:16;;;;;;;7.80;4.13;;;26.80;59.40;;;;;;5075700;28;20024;-87
2021/06/13 07:40:42;;;;;;;8.05;3.40;;;27.50;58.40;;;;;;5077959;28;20047;-87
2021/06/13 07:43:08;;;;;;;6.55;3.80;;;27.80;56.90;;;;;;5077261;28;20540;-88
2021/06/13 07:45:34;;;;;;;6.47;3.65;;;27.20;56.50;;;;;;5079675;28;20051;-88
2021/06/13 07:48:00;;;;;;;7.60;3.50;;;27.20;56.20;;;;;;5077119;28;20048;-88
2021/06/13 07:50:26;;;;;;;7.35;3.78;;;27.00;56.50;;;;;;5080645;28;20029;-88
2021/06/13 07:52:52;;;;;;;7.18;3.53;;;27.20;55.20;;;;;;5083519;28;20029;-88
2021/06/13 07:55:19;;;;;;;7.75;3.65;;;27.30;55.40;;;;;;5082538;28;20074;-88
2021/06/13 07:57:45;;;;;;;6.40;3.78;;;27.70;54.20;;;;;;5081276;28;20040;-88
2021/06/13 08:00:14;;;;;;;6.82;3.38;;;27.70;53.00;;;;;;5079661;28;20432;-88
2021/06/13 08:02:40;;;;;;;5.88;2.90;;;26.70;56.00;;;;;;5075546;28;20082;-88
2021/06/13 08:05:10;;;;;;;8.25;3.47;;;27.30;54.30;;;;;;5075114;28;20025;-88
2021/06/13 08:07:37;;;;;;;6.90;3.38;;;27.30;53.50;;;;;;5076912;28;20388;-88
2021/06/13 08:10:07;;;;;;;6.85;3.33;;;26.90;53.90;;;;;;5075725;28;20020;-88
2021/06/13 08:12:33;;;;;;;9.98;3.05;;;28.00;52.50;;;;;;5075116;28;20081;-88
2021/06/13 08:14:59;;;;;;;5.07;3.00;;;28.60;50.50;;;;;;5079245;28;20477;-88
2021/06/13 08:17:25;;;;;;;5.55;3.20;;;27.80;51.80;;;;;;5076531;28;20025;-88
2021/06/13 08:19:51;;;;;;;8.13;3.00;;;27.90;52.10;;;;;;5075481;28;20117;-88
2021/06/13 08:22:17;;;;;;;9.45;3.20;;;27.40;51.70;;;;;;5075961;28;20024;-89
2021/06/13 08:24:43;;;;;;;7.95;3.20;;;26.70;54.60;;;;;;5077657;28;20021;-88
2021/06/13 08:27:08;;;;;;;5.68;2.90;;;28.00;51.80;;;;;;5076683;28;20057;-89
2021/06/13 08:29:34;;;;;;;7.05;2.83;;;28.80;49.80;;;;;;5077164;28;20033;-87
2021/06/13 08:32:00;;;;;;;5.28;2.58;;;29.60;48.80;;;;;;5074749;28;20115;-87
2021/06/13 08:34:26;;;;;;;8.02;2.90;;;29.70;47.40;;;;;;5077283;28;20024;-89
2021/06/13 08:36:53;;;;;;;7.25;3.08;;;29.80;48.10;;;;;;5080815;28;20029;-89
2021/06/13 08:39:18;;;;;;;6.47;3.28;;;29.30;47.60;;;;;;5078969;28;20390;-88
2021/06/13 08:41:44;;;;;;;7.47;3.22;;;28.40;48.40;;;;;;5076401;28;20024;-89
2021/06/13 08:44:11;;;;;;;7.90;3.08;;;29.00;48.10;;;;;;5075170;28;20027;-89
2021/06/13 08:46:38;;;;;;;7.15;3.20;;;28.90;48.40;;;;;;5077768;28;20041;-89
2021/06/13 08:49:03;;;;;;;7.28;3.30;;;28.70;48.90;;;;;;5081732;28;20032;-89
2021/06/13 08:51:29;;;;;;;6.28;3.28;;;29.10;47.80;;;;;;5075067;28;20051;-88
2021/06/13 08:53:55;;;;;;;6.53;3.13;;;28.50;48.10;;;;;;5075135;28;20025;-88
2021/06/13 08:56:22;;;;;;;6.95;3.13;;;29.00;48.10;;;;;;5075201;28;20512;-89
2021/06/13 08:58:49;;;;;;;7.03;2.90;;;29.60;48.20;;;;;;5076133;28;20028;-88
2021/06/13 09:01:15;;;;;;;7.93;3.45;;;30.10;47.00;;;;;;5077317;28;20024;-88
2021/06/13 09:03:42;;;;;;;7.40;2.80;;;30.00;46.10;;;;;;5075566;28;20427;-88
2021/06/13 09:06:08;;;;;;;7.85;2.92;;;29.80;46.20;;;;;;5075162;28;20500;-89
2021/06/13 09:08:35;;;;;;;6.28;3.10;;;29.80;46.90;;;;;;5076779;28;20029;-89
2021/06/13 09:11:01;;;;;;;7.40;2.78;;;29.80;46.60;;;;;;5077062;28;20025;-88
2021/06/13 09:13:29;;;;;;;5.50;2.50;;;29.70;47.20;;;;;;5074673;28;20115;-88
2021/06/13 09:16:01;;;;;;;8.20;2.67;;;29.40;47.30;;;;;;5073682;28;20025;-88
2021/06/13 09:18:41;;;;;;;8.93;2.60;;;29.50;47.60;;;;;;5073939;28;20033;-88
2021/06/13 09:21:13;;;;;;;7.70;2.95;;;30.40;46.70;;;;;;5076776;28;20016;-88
2021/06/13 09:23:40;;;;;;;6.35;3.03;;;30.70;46.20;;;;;;5078922;28;20024;-88
2021/06/13 09:26:09;;;;;;;5.88;2.70;;;30.50;46.10;;;;;;5081325;28;20041;-88
2021/06/13 09:28:38;;;;;;;6.63;2.92;;;30.00;46.80;;;;;;5074072;28;20028;-89
2021/06/13 09:31:05;;;;;;;7.65;2.67;;;30.40;46.00;;;;;;5076628;28;20462;-89
2021/06/13 09:33:32;;;;;;;5.25;2.92;;;31.00;46.00;;;;;;5074803;28;20021;-89
2021/06/13 09:36:00;;;;;;;5.97;2.85;;;31.40;44.10;;;;;;5075369;28;20029;-89
2021/06/13 09:38:29;;;;;;;8.10;3.00;;;31.10;44.70;;;;;;5075260;28;20035;-88
2021/06/13 09:41:05;;;;;;;6.63;2.88;;;30.70;45.20;;;;;;5073500;28;20028;-88
2021/06/13 09:43:36;;;;;;;5.13;2.70;;;30.10;47.20;;;;;;5073517;28;20155;-88
2021/06/13 09:46:08;;;;;;;6.10;2.58;;;30.90;45.20;;;;;;5073503;28;20094;-88
2021/06/13 09:48:40;;;;;;;5.55;2.22;;;31.40;45.10;;;;;;5074009;28;20032;-88
2021/06/13 09:51:18;;;;;;;5.03;2.67;;;30.40;45.30;;;;;;5075666;28;20025;-87
2021/06/13 09:53:55;;;;;;;8.13;2.90;;;29.80;47.30;;;;;;5073414;28;20056;-87
2021/06/13 09:56:32;;;;;;;8.50;3.03;;;30.20;46.00;;;;;;5074788;28;20025;-89
2021/06/13 09:59:03;;;;;;;8.70;3.08;;;30.20;46.20;;;;;;5073730;28;20020;-89
2021/06/13 10:01:38;;;;;;;6.15;3.22;;;29.40;47.00;;;;;;5074292;28;20031;-88
2021/06/13 10:04:07;;;;;;;4.95;2.67;;;29.70;46.20;;;;;;5073408;28;20016;-88
2021/06/13 10:06:36;;;;;;;4.97;2.80;;;30.50;45.30;;;;;;5075191;28;20052;-89
2021/06/13 10:09:05;;;;;;;7.88;2.70;;;30.60;45.00;;;;;;5074480;28;20078;-89
2021/06/13 10:11:31;;;;;;;5.03;2.75;;;30.00;46.40;;;;;;5073723;28;20039;-89
2021/06/13 10:14:04;;;;;;;5.28;2.55;;;30.30;46.90;;;;;;5073813;28;20021;-89
2021/06/13 10:16:50;;;;;;;6.90;2.53;;;29.70;46.50;;;;;;5075518;28;20366;-89
2021/06/13 10:19:41;;;;;;;5.55;2.88;;;29.10;47.70;;;;;;5072624;28;20024;-89
2021/06/13 10:22:07;;;;;;;6.28;2.50;;;29.40;47.10;;;;;;5073187;28;20385;-89
2021/06/13 10:24:36;;;;;;;5.88;2.45;;;30.10;46.30;;;;;;5074147;28;20070;-89
2021/06/13 10:27:07;;;;;;;7.03;3.25;;;30.40;46.20;;;;;;5073078;28;20036;-89
2021/06/13 10:29:35;;;;;;;4.03;2.57;;;30.70;45.70;;;;;;5074216;28;20020;-89
2021/06/13 10:32:04;;;;;;;6.20;3.03;;;30.20;46.40;;;;;;5076501;28;20262;-89
2021/06/13 10:34:30;;;;;;;7.18;3.10;;;30.60;45.80;;;;;;5075081;28;20121;-88
2021/06/13 10:36:58;;;;;;;6.10;2.88;;;29.70;46.70;;;;;;5075926;28;20056;-89
2021/06/13 10:39:26;;;;;;;7.70;2.90;;;30.20;46.90;;;;;;5072542;28;20503;-88
2021/06/13 10:41:54;;;;;;;4.63;2.90;;;30.30;46.10;;;;;;5073984;28;20474;-88
2021/06/13 10:44:25;;;;;;;7.80;3.47;;;30.60;46.60;;;;;;5073071;28;20021;-88
2021/06/13 10:47:15;;;;;;;6.78;3.17;;;30.50;45.70;;;;;;5072508;28;20028;-88
2021/06/13 10:49:56;;;;;;;5.53;2.88;;;31.10;45.20;;;;;;5075294;28;20474;-88
2021/06/13 10:52:24;;;;;;;6.03;3.40;;;31.10;45.70;;;;;;5077296;28;20026;-88
2021/06/13 10:54:50;;;;;;;7.40;3.30;;;30.60;46.30;;;;;;5077309;28;20029;-88
2021/06/13 10:57:16;;;;;;;7.97;3.58;;;30.90;46.40;;;;;;5077377;28;20024;-88
2021/06/13 10:59:47;;;;;;;7.70;3.70;;;31.00;45.30;;;;;;5076228;28;20025;-88
2021/06/13 11:02:17;;;;;;;7.37;3.10;;;30.20;46.80;;;;;;5076277;28;20479;-88
2021/06/13 11:05:04;;;;;;;8.73;3.72;;;31.10;46.90;;;;;;5076600;28;20003;-88
2021/06/13 11:07:30;;;;;;;7.35;3.67;;;30.70;46.40;;;;;;5076379;28;20020;-88
2021/06/13 11:12:39;;;;;;;6.78;3.85;;;31.40;45.40;;;;;;5077492;28;20041;-88
2021/06/13 11:15:09;;;;;;;8.95;3.97;;;30.80;46.00;;;;;;5075907;28;20012;-88
2021/06/13 11:17:54;;;;;;;6.85;3.88;;;31.00;46.30;;;;;;5075941;28;20146;-88
2021/06/13 11:20:49;;;;;;;7.93;3.42;;;31.30;45.10;;;;;;5077427;28;20036;-88
2021/06/13 11:23:37;;;;;;;7.32;3.38;;;31.10;46.50;;;;;;5066600;28;20039;-88
2021/06/13 11:26:05;;;;;;;6.50;3.63;;;30.10;47.40;;;;;;5077809;28;20396;-88
2021/06/13 11:28:42;;;;;;;9.93;3.67;;;31.00;46.80;;;;;;5078263;28;20085;-88
2021/06/13 11:31:12;;;;;;;6.03;4.05;;;31.80;45.00;;;;;;5095074;28;20017;-88
2021/06/13 11:33:43;;;;;;;6.22;3.38;;;31.50;44.60;;;;;;5097875;28;20028;-88
2021/06/13 11:36:31;;;;;;;9.57;4.05;;;31.60;44.20;;;;;;5098721;28;20001;-88
2021/06/13 11:39:02;;;;;;;9.35;3.85;;;31.60;44.60;;;;;;5098428;28;20008;-88
2021/06/13 11:41:35;;;;;;;;;;;31.90;45.40;;;;;;5082075;28;20473;-88
2021/06/13 11:44:06;;;;;;;8.48;3.83;;;32.70;44.60;;;;;;5077715;28;20408;-89
2021/06/13 11:46:44;;;;;;;8.02;3.85;;;32.30;43.90;;;;;;5076615;28;20019;-89
2021/06/13 11:49:18;;;;;;;6.05;3.63;;;31.90;44.70;;;;;;5075218;28;20028;-89
2021/06/13 11:52:00;;;;;;;7.35;3.85;;;31.70;44.70;;;;;;5075481;28;20042;-89
2021/06/13 11:54:29;;;;;;;;;;;31.70;43.70;;;;;;5075686;28;20028;-89
2021/06/13 11:56:55;;;;;;;11.95;4.78;;;30.90;46.40;;;;;;5076319;28;19896;-89
2021/06/13 11:59:23;;;;;;;7.65;3.90;;;31.40;45.90;;;;;;5076777;28;20024;-89
2021/06/13 12:01:57;;;;;;;9.88;3.70;;;31.30;46.10;;;;;;5075869;28;20034;-89
2021/06/13 12:04:28;;;;;;;7.28;3.70;;;31.60;44.80;;;;;;5074969;28;20016;-89
2021/06/13 12:06:55;;;;;;;7.95;3.28;;;32.20;44.20;;;;;;5074264;28;20107;-89
2021/06/13 12:09:22;;;;;;;6.60;3.25;;;32.00;43.80;;;;;;5075007;28;20028;-89
2021/06/13 12:11:54;;;;;;;7.97;3.58;;;32.10;44.50;;;;;;5073920;28;20028;-89
2021/06/13 12:14:27;;;;;;;8.02;3.40;;;32.20;44.30;;;;;;5075059;28;20029;-89
2021/06/13 12:16:56;;;;;;;8.95;3.38;;;32.60;43.50;;;;;;5074674;28;20051;-89
2021/06/13 12:19:34;;;;;;;6.93;3.75;;;33.10;43.00;;;;;;5075661;28;20025;-89
2021/06/13 12:22:26;;;;;;;6.15;3.67;;;32.80;42.40;;;;;;5075685;28;20118;-89
2021/06/13 12:27:32;;;;;;;7.57;3.30;;;32.80;42.70;;;;;;5076051;28;19904;-89
2021/06/13 12:30:06;;;;;;;5.93;3.50;;;32.10;44.30;;;;;;5074079;28;20162;-89
2021/06/13 12:32:31;;;;;;;6.25;3.30;;;32.60;43.90;;;;;;5074071;28;20485;-89
2021/06/13 12:35:06;;;;;;;12.02;4.05;;;33.00;42.90;;;;;;5075437;28;20028;-89
2021/06/13 12:37:32;;;;;;;8.27;3.15;;;32.60;42.60;;;;;;5075544;28;20059;-89
2021/06/13 12:40:00;;;;;;;7.10;4.10;;;32.60;44.20;;;;;;5075042;28;20025;-89
2021/06/13 12:42:27;;;;;;;7.18;3.92;;;32.20;43.90;;;;;;5074225;28;20025;-89
2021/06/13 12:45:05;;;;;;;9.73;4.55;;;32.20;44.40;;;;;;5075536;28;20024;-89
2021/06/13 12:47:31;;;;;;;6.88;4.22;;;32.60;43.40;;;;;;5075267;28;20048;-89
2021/06/13 12:49:59;;;;;;;7.38;4.18;;;32.80;43.00;;;;;;5074100;28;20028;-89
2021/06/13 12:52:26;;;;;;;9.40;4.72;;;32.80;42.40;;;;;;5074095;28;20078;-89
2021/06/13 12:55:04;;;;;;;7.53;3.58;;;32.40;43.40;;;;;;5074034;28;20094;-89